Tropical Cyclones
[Index]
Main Index Home Page Stock Weather Photos Extreme Storms Discussion Storm News and Storm Chasing Reports Tropical Cyclones / Hurricanes / Typhoons Weather Data and Links Wild Fires / Bushfires Weather Observation Techniques Weather Picture Catalogue Tornado Pictures and Reports Stock Video Footage and DVDs for sale
Season 1973-1974 Tropical Cyclone UNA Track Map
Season 1973-1974 Summaries: [BoM-AU] [JTWC-AU] [JTWC-SIO] [JTWC-SPAC] [JTWC-SH]
<<- Previous TC | BoM 1973-1974 Season | Next TC ->>

click for intensity scale information  Lat/long Grid: Show Hide

 Date Labels: Show Hide

Bureau of Meteorology Tropical Cyclone Data

Name: UNA
Number: 516 / 197374_06

14 Dec 1973 23:00 UTC to 20 Dec 1973 02:00 UTC

    date/time    lat    long    hPa   cat  kts
1973-12-14 23   13.9   156.8   1000                     
1973-12-15 02   14.0   156.5   1000                     
1973-12-15 05   14.1   156.2    998                     
1973-12-15 08   14.2   155.9    998                     
1973-12-15 11   14.2   155.6    998                     
1973-12-15 14   14.2   155.3    998                     
1973-12-15 17   14.3   155.0    998                     
1973-12-15 20   14.3   154.7    998                     
1973-12-15 23   14.3   154.5    997                     
1973-12-16 02   14.4   154.3    996                     
1973-12-16 05   14.4   154.0    996                     
1973-12-16 08   14.5   153.7    996                     
1973-12-16 11   14.5   153.5    996                     
1973-12-16 14   14.5   153.3    995    1                
1973-12-16 17   14.5   153.0    998                     
1973-12-16 20   14.5   152.7    995    1                
1973-12-16 23   14.5   152.5    995    1                
1973-12-17 02   14.5   152.2    995    1                
1973-12-17 05   14.5   151.8    993    1                
1973-12-17 08   14.6   151.3    993    1                
1973-12-17 11   14.8   150.4    993    1                
1973-12-17 14   15.2   149.8    993    1                
1973-12-17 17   15.5   149.3    993    1                
1973-12-17 20   16.2   148.9    993    1                
1973-12-17 23   16.9   148.4    993    1                
1973-12-18 02   17.8   148.0    993    1                
1973-12-18 05   18.1   147.7    992    1                
1973-12-18 08   18.5   147.4    991    1                
1973-12-18 11   18.7   147.2    989    1                
1973-12-18 14   19.1   147.1    985    2                
1973-12-18 17   19.6   147.2    988    1                
1973-12-18 20   20.3   147.2    994    1                
1973-12-18 23   20.9   147.2    998                     
1973-12-19 02   21.5   147.2    998                     
1973-12-19 05   21.9   147.2    998                     
1973-12-19 08   22.2   147.2    998                     
1973-12-19 11   22.5   147.3    998                     
1973-12-19 14   22.7   147.4    998                     
1973-12-19 17   23.0   147.6    998                     
1973-12-19 20   23.3   147.9   1000                     
1973-12-19 23   23.7   148.3   1000                     
1973-12-20 02   24.1   148.7   1002                     
Winds are 10-min average.

Tropical cyclone tracks developed by Michael Bath using data from the Bureau of Meteorology and Google Maps.


[Australian Severe Weather index] [Copyright Notice] [Email Contacts] [Search This Site] [Privacy Policy]
Document: tropical_cyclone_una.htm Updated: 30 May 2013